createdAt,value
2019-03-25T00:00:15.775Z,0.00
2019-03-25T00:01:15.775Z,0.00
2019-03-25T00:02:15.769Z,0.00
2019-03-25T00:03:15.798Z,0.00
2019-03-25T00:04:15.759Z,0.00
2019-03-25T00:05:15.758Z,0.00
2019-03-25T00:06:15.750Z,0.00
2019-03-25T00:07:15.749Z,0.00
2019-03-25T00:08:15.773Z,0.00
2019-03-25T00:09:15.740Z,0.00
2019-03-25T00:10:15.742Z,0.00
2019-03-25T00:11:15.761Z,0.00
2019-03-25T00:12:15.729Z,0.00
2019-03-25T00:13:15.725Z,0.00
2019-03-25T00:14:15.748Z,0.00
2019-03-25T00:15:15.725Z,0.00
2019-03-25T00:16:15.715Z,0.00
2019-03-25T00:17:15.729Z,0.00
2019-03-25T00:18:15.707Z,0.00
2019-03-25T00:19:15.727Z,0.00
2019-03-25T00:20:15.702Z,0.00
2019-03-25T00:21:15.692Z,0.00
2019-03-25T00:22:15.690Z,0.00
2019-03-25T00:23:15.686Z,0.00
2019-03-25T00:24:15.707Z,0.00
2019-03-25T00:25:15.675Z,0.00
2019-03-25T00:26:15.666Z,0.00
2019-03-25T00:27:15.670Z,0.00
2019-03-25T00:28:15.664Z,0.00
2019-03-25T00:29:15.687Z,0.00
2019-03-25T00:30:15.650Z,0.00
2019-03-25T00:31:15.647Z,0.00
2019-03-25T00:32:15.646Z,0.00
2019-03-25T00:33:15.639Z,0.00
2019-03-25T00:34:15.748Z,0.00
2019-03-25T00:35:15.631Z,0.00
2019-03-25T00:36:15.628Z,0.00
2019-03-25T00:37:15.624Z,0.00
2019-03-25T00:38:15.614Z,0.00
2019-03-25T00:39:15.645Z,0.00
2019-03-25T00:40:15.611Z,0.00
2019-03-25T00:41:15.605Z,0.00
2019-03-25T00:42:15.599Z,0.00
2019-03-25T00:43:15.623Z,0.00
2019-03-25T00:44:15.590Z,0.00
2019-03-25T00:45:15.583Z,0.00
2019-03-25T00:46:15.614Z,0.00
2019-03-25T00:47:15.578Z,0.00
2019-03-25T00:48:15.575Z,0.00
2019-03-25T00:49:15.594Z,0.00
2019-03-25T00:50:15.562Z,0.00
2019-03-25T00:51:15.557Z,0.00
2019-03-25T00:52:15.550Z,0.00
2019-03-25T00:53:15.546Z,0.00
2019-03-25T00:54:15.573Z,0.00
2019-03-25T00:55:15.542Z,0.00
2019-03-25T00:56:15.527Z,0.00
2019-03-25T00:57:15.535Z,0.00
2019-03-25T00:58:15.523Z,0.00
2019-03-25T00:59:15.542Z,0.00
2019-03-25T01:00:15.506Z,0.00
2019-03-25T01:01:15.507Z,0.00
2019-03-25T01:02:15.504Z,0.00
2019-03-25T01:03:15.494Z,0.00
2019-03-25T01:04:15.518Z,0.00
2019-03-25T01:05:15.491Z,0.00
2019-03-25T01:06:15.487Z,0.00
2019-03-25T01:07:15.478Z,0.00
2019-03-25T01:08:15.474Z,0.00
2019-03-25T01:09:15.499Z,0.00
2019-03-25T01:10:15.461Z,0.00
2019-03-25T01:11:15.457Z,0.00
2019-03-25T01:12:15.451Z,0.00
2019-03-25T01:13:15.446Z,0.00
2019-03-25T01:14:15.511Z,0.00
2019-03-25T01:15:15.442Z,0.00
2019-03-25T01:16:15.431Z,0.00
2019-03-25T01:17:15.426Z,0.00
2019-03-25T01:18:17.052Z,0.00
2019-03-25T01:19:15.445Z,0.00
2019-03-25T01:20:15.445Z,0.00
2019-03-25T01:21:15.409Z,0.00
2019-03-25T01:22:15.402Z,0.00
2019-03-25T01:23:15.398Z,0.00
2019-03-25T01:24:15.423Z,0.00
2019-03-25T01:25:15.386Z,0.00
2019-03-25T01:26:15.383Z,0.00
2019-03-25T01:27:15.377Z,0.00
2019-03-25T01:28:15.368Z,0.00
2019-03-25T01:29:15.390Z,0.00
2019-03-25T01:30:15.369Z,0.00
2019-03-25T01:31:15.358Z,0.00
2019-03-25T01:32:15.354Z,0.00
2019-03-25T01:33:15.349Z,0.00
2019-03-25T01:34:15.369Z,0.00
2019-03-25T01:35:15.336Z,0.00
2019-03-25T01:36:15.333Z,0.00
2019-03-25T01:37:15.326Z,0.00
2019-03-25T01:38:15.323Z,0.00
2019-03-25T01:39:15.405Z,0.00
2019-03-25T01:40:15.310Z,0.00
2019-03-25T01:41:15.302Z,0.00
2019-03-25T01:42:15.307Z,0.00
2019-03-25T01:43:15.291Z,0.00
2019-03-25T01:44:15.320Z,0.00
2019-03-25T01:45:15.286Z,0.00
2019-03-25T01:46:15.281Z,0.00
2019-03-25T01:47:15.271Z,0.00
2019-03-25T01:48:15.267Z,0.00
2019-03-25T01:49:15.294Z,0.00
2019-03-25T01:50:15.259Z,0.00
2019-03-25T01:51:15.254Z,0.00
2019-03-25T01:52:15.245Z,0.00
2019-03-25T01:53:15.250Z,0.00
2019-03-25T01:54:15.266Z,0.00
2019-03-25T01:55:15.234Z,0.00
2019-03-25T01:56:15.226Z,0.00
2019-03-25T01:57:15.222Z,0.00
2019-03-25T01:58:15.219Z,0.00
2019-03-25T01:59:15.314Z,0.00
2019-03-25T02:00:15.206Z,0.00
2019-03-25T02:01:15.205Z,0.00
2019-03-25T02:02:15.202Z,0.00
2019-03-25T02:03:15.186Z,0.00
2019-03-25T02:04:15.215Z,0.00
2019-03-25T02:05:15.179Z,0.00
2019-03-25T02:06:15.178Z,0.00
2019-03-25T02:07:15.169Z,0.00
2019-03-25T02:08:15.171Z,0.00
2019-03-25T02:09:15.191Z,0.00
2019-03-25T02:10:15.151Z,0.00
2019-03-25T02:11:15.148Z,0.00
2019-03-25T02:12:15.142Z,0.00
2019-03-25T02:13:15.138Z,0.00
2019-03-25T02:14:15.164Z,0.00
2019-03-25T02:15:15.127Z,0.00
2019-03-25T02:16:15.126Z,0.00
2019-03-25T02:17:15.119Z,0.00
2019-03-25T02:18:15.110Z,0.00
2019-03-25T02:19:15.143Z,0.00
2019-03-25T02:20:25.856Z,0.00
2019-03-25T02:21:15.097Z,0.00
2019-03-25T02:22:15.087Z,0.00
2019-03-25T02:23:15.087Z,0.00
2019-03-25T02:24:15.172Z,0.00
2019-03-25T02:25:24.893Z,0.00
2019-03-25T02:26:15.075Z,0.00
2019-03-25T02:27:15.065Z,0.00
2019-03-25T02:28:15.059Z,0.00
2019-03-25T02:29:15.090Z,0.00
2019-03-25T02:30:15.054Z,0.00
2019-03-25T02:31:15.047Z,0.00
2019-03-25T02:32:15.039Z,0.00
2019-03-25T02:33:15.034Z,0.00
2019-03-25T02:34:15.055Z,0.00
2019-03-25T02:35:15.033Z,0.00
2019-03-25T02:36:15.023Z,0.00
2019-03-25T02:37:15.021Z,0.00
2019-03-25T02:38:15.012Z,0.00
2019-03-25T02:39:15.032Z,0.00
2019-03-25T02:40:15.023Z,0.00
2019-03-25T02:41:14.995Z,0.00
2019-03-25T02:42:14.990Z,0.00
2019-03-25T02:43:14.988Z,0.00
2019-03-25T02:44:14.978Z,0.00
2019-03-25T02:45:15.005Z,0.00
2019-03-25T02:46:14.972Z,0.00
2019-03-25T02:47:14.964Z,0.00
2019-03-25T02:48:14.961Z,0.00
2019-03-25T02:49:14.955Z,0.00
2019-03-25T02:50:14.983Z,0.00
2019-03-25T02:51:14.939Z,0.00
2019-03-25T02:52:14.937Z,0.00
2019-03-25T02:53:14.941Z,0.00
2019-03-25T02:54:14.935Z,0.00
2019-03-25T02:55:14.955Z,0.00
2019-03-25T02:56:14.923Z,0.00
2019-03-25T02:57:14.913Z,0.00
2019-03-25T02:58:14.909Z,0.00
2019-03-25T02:59:14.898Z,0.00
2019-03-25T03:00:14.928Z,0.00
2019-03-25T03:01:14.894Z,0.00
2019-03-25T03:02:14.895Z,0.00
2019-03-25T03:03:14.887Z,0.00
2019-03-25T03:04:14.883Z,0.00
2019-03-25T03:05:14.897Z,0.00
2019-03-25T03:06:14.877Z,0.00
2019-03-25T03:07:14.863Z,0.00
2019-03-25T03:08:14.863Z,0.00
2019-03-25T03:09:14.850Z,0.00
2019-03-25T03:10:14.877Z,0.00
2019-03-25T03:11:14.842Z,0.00
2019-03-25T03:12:14.832Z,0.00
2019-03-25T03:13:14.843Z,0.00
2019-03-25T03:14:15.458Z,0.00
2019-03-25T03:15:14.856Z,0.00
2019-03-25T03:16:14.812Z,0.00
2019-03-25T03:17:14.817Z,0.00
2019-03-25T03:18:14.812Z,0.00
2019-03-25T03:19:14.807Z,0.00
2019-03-25T03:20:14.830Z,0.00
2019-03-25T03:21:14.789Z,0.00
2019-03-25T03:22:14.787Z,0.00
2019-03-25T03:23:14.803Z,0.00
2019-03-25T03:24:14.773Z,0.00
2019-03-25T03:25:14.790Z,0.00
2019-03-25T03:26:14.763Z,0.00
2019-03-25T03:27:14.775Z,0.00
2019-03-25T03:28:14.761Z,0.00
2019-03-25T03:29:14.749Z,0.00
2019-03-25T03:30:36.595Z,0.00
2019-03-25T03:31:14.739Z,0.00
2019-03-25T03:32:14.738Z,0.00
2019-03-25T03:33:14.728Z,0.00
2019-03-25T03:34:14.719Z,0.00
2019-03-25T03:35:14.750Z,0.00
2019-03-25T03:36:14.705Z,0.00
2019-03-25T03:37:14.711Z,0.00
2019-03-25T03:38:14.695Z,0.00
2019-03-25T03:39:14.699Z,0.00
2019-03-25T03:40:14.712Z,0.00
2019-03-25T03:41:14.710Z,0.00
2019-03-25T03:42:14.677Z,0.00
2019-03-25T03:43:14.677Z,0.00
2019-03-25T03:44:14.666Z,0.00
2019-03-25T03:45:14.663Z,0.00
2019-03-25T03:46:14.682Z,0.00
2019-03-25T03:47:14.651Z,0.00
2019-03-25T03:48:14.644Z,0.00
2019-03-25T03:49:14.641Z,0.00
2019-03-25T03:50:14.633Z,0.00
2019-03-25T03:51:14.656Z,0.00
2019-03-25T03:52:14.622Z,0.00
2019-03-25T03:53:14.617Z,0.00
2019-03-25T03:54:14.614Z,0.00
2019-03-25T03:55:14.613Z,0.00
2019-03-25T03:56:14.719Z,0.00
2019-03-25T03:57:14.603Z,0.00
2019-03-25T03:58:14.591Z,0.00
2019-03-25T03:59:14.584Z,0.00
2019-03-25T04:00:14.585Z,0.00
2019-03-25T04:01:14.601Z,0.00
2019-03-25T04:02:14.569Z,0.00
2019-03-25T04:03:14.566Z,0.00
2019-03-25T04:04:14.557Z,0.00
2019-03-25T04:05:14.555Z,0.00
2019-03-25T04:06:14.576Z,0.00
2019-03-25T04:07:14.543Z,0.00
2019-03-25T04:08:14.537Z,0.00
2019-03-25T04:09:14.530Z,0.00
2019-03-25T04:10:14.525Z,0.00
2019-03-25T04:11:14.545Z,0.00
2019-03-25T04:12:14.512Z,0.00
2019-03-25T04:13:14.507Z,0.00
2019-03-25T04:14:14.694Z,0.00
2019-03-25T04:15:14.501Z,0.00
2019-03-25T04:16:14.517Z,0.00
2019-03-25T04:17:14.481Z,0.00
2019-03-25T04:18:14.481Z,0.00
2019-03-25T04:19:14.484Z,0.00
2019-03-25T04:20:14.470Z,0.00
2019-03-25T04:21:14.491Z,0.00
2019-03-25T04:22:14.461Z,0.00
2019-03-25T04:23:14.458Z,0.00
2019-03-25T04:24:14.449Z,0.00
2019-03-25T04:25:14.440Z,0.00
2019-03-25T04:26:27.756Z,0.00
2019-03-25T04:27:14.430Z,0.00
2019-03-25T04:28:14.425Z,0.00
2019-03-25T04:29:14.416Z,0.00
2019-03-25T04:30:14.417Z,0.00
2019-03-25T04:31:14.435Z,0.00
2019-03-25T04:32:14.405Z,0.00
2019-03-25T04:33:14.396Z,0.00
2019-03-25T04:34:14.389Z,0.00
2019-03-25T04:35:14.387Z,0.00
2019-03-25T04:36:14.403Z,4.00
2019-03-25T04:37:14.378Z,0.00
2019-03-25T04:38:14.367Z,4.00
2019-03-25T04:39:14.364Z,4.00
2019-03-25T04:40:14.389Z,4.00
2019-03-25T04:41:14.350Z,4.00
2019-03-25T04:42:14.382Z,8.00
2019-03-25T04:43:14.348Z,8.00
2019-03-25T04:44:14.332Z,12.00
2019-03-25T04:45:14.326Z,12.00
2019-03-25T04:46:14.351Z,16.00
2019-03-25T04:47:14.316Z,20.00
2019-03-25T04:48:14.312Z,24.00
2019-03-25T04:49:14.306Z,28.00
2019-03-25T04:50:14.307Z,36.00
2019-03-25T04:51:14.331Z,40.00
2019-03-25T04:52:14.287Z,48.00
2019-03-25T04:53:14.283Z,56.00
2019-03-25T04:54:14.281Z,64.00
2019-03-25T04:55:14.275Z,76.00
2019-03-25T04:56:14.295Z,88.00
2019-03-25T04:57:14.263Z,100.00
2019-03-25T04:58:14.262Z,120.00
2019-03-25T04:59:14.253Z,140.00
2019-03-25T05:00:14.244Z,156.00
2019-03-25T05:01:14.272Z,180.00
2019-03-25T05:02:14.264Z,204.00
2019-03-25T05:03:14.232Z,228.00
2019-03-25T05:04:14.223Z,256.00
2019-03-25T05:05:14.236Z,280.00
2019-03-25T05:06:14.271Z,308.00
2019-03-25T05:07:14.236Z,340.00
2019-03-25T05:08:14.204Z,376.00
2019-03-25T05:09:14.199Z,408.00
2019-03-25T05:10:14.195Z,456.00
2019-03-25T05:11:14.191Z,516.00
2019-03-25T05:12:14.216Z,588.00
2019-03-25T05:13:14.180Z,664.00
2019-03-25T05:14:14.176Z,724.00
2019-03-25T05:15:14.170Z,760.00
2019-03-25T05:16:14.163Z,788.00
2019-03-25T05:17:14.190Z,816.00
2019-03-25T05:18:14.152Z,860.00
2019-03-25T05:19:14.150Z,912.00
2019-03-25T05:20:14.146Z,980.00
2019-03-25T05:21:14.139Z,1056.00
2019-03-25T05:22:14.163Z,1136.00
2019-03-25T05:23:14.133Z,1236.00
2019-03-25T05:24:14.128Z,1344.00
2019-03-25T05:25:14.118Z,1400.00
2019-03-25T05:26:14.114Z,1412.00
2019-03-25T05:27:14.142Z,1424.00
2019-03-25T05:28:14.122Z,1484.00
2019-03-25T05:29:14.095Z,1536.00
2019-03-25T05:30:14.105Z,1624.00
2019-03-25T05:31:14.131Z,1760.00
2019-03-25T05:32:14.120Z,1944.00
2019-03-25T05:33:14.083Z,2200.00
2019-03-25T05:34:14.093Z,2496.00
2019-03-25T05:35:14.078Z,2676.00
2019-03-25T05:36:14.071Z,2820.00
2019-03-25T05:37:14.094Z,2908.00
2019-03-25T05:38:14.059Z,2836.00
2019-03-25T05:39:14.054Z,2700.00
2019-03-25T05:40:14.058Z,2520.00
2019-03-25T05:41:14.042Z,2328.00
2019-03-25T05:42:14.071Z,2144.00
2019-03-25T05:43:14.037Z,1936.00
2019-03-25T05:44:14.035Z,1768.00
2019-03-25T05:45:14.025Z,1708.00
2019-03-25T05:46:14.021Z,1704.00
2019-03-25T05:47:14.037Z,1684.00
2019-03-25T05:48:14.018Z,1584.00
2019-03-25T05:49:14.005Z,1496.00
2019-03-25T05:50:14.001Z,1448.00
2019-03-25T05:51:13.996Z,1432.00
2019-03-25T05:52:14.018Z,1416.00
2019-03-25T05:53:13.989Z,1348.00
2019-03-25T05:54:13.985Z,1284.00
2019-03-25T05:55:13.983Z,1228.00
2019-03-25T05:56:13.974Z,1220.00
2019-03-25T05:57:13.997Z,1296.00
2019-03-25T05:58:13.967Z,1512.00
2019-03-25T05:59:13.961Z,1860.00
2019-03-25T06:00:13.956Z,2248.00
2019-03-25T06:01:13.955Z,2660.00
2019-03-25T06:02:13.978Z,3052.00
2019-03-25T06:03:13.947Z,3388.00
2019-03-25T06:04:13.943Z,3716.00
2019-03-25T06:05:13.940Z,4032.00
2019-03-25T06:06:14.793Z,4224.00
2019-03-25T06:07:13.952Z,4264.00
2019-03-25T06:08:13.921Z,4240.00
2019-03-25T06:09:13.958Z,4116.00
2019-03-25T06:10:13.917Z,3784.00
2019-03-25T06:11:13.908Z,3344.00
2019-03-25T06:12:13.927Z,3080.00
2019-03-25T06:13:13.896Z,3088.00
2019-03-25T06:14:13.893Z,3320.00
2019-03-25T06:15:13.889Z,3444.00
2019-03-25T06:16:13.890Z,3192.00
2019-03-25T06:17:13.912Z,3080.00
2019-03-25T06:18:13.905Z,2580.00
2019-03-25T06:19:13.873Z,2176.00
2019-03-25T06:20:13.867Z,2196.00
2019-03-25T06:21:13.862Z,2048.00
2019-03-25T06:22:13.859Z,1716.00
2019-03-25T06:23:13.885Z,1756.00
2019-03-25T06:24:13.845Z,1764.00
2019-03-25T06:25:13.844Z,1716.00
2019-03-25T06:26:13.995Z,1832.00
2019-03-25T06:27:14.641Z,2132.00
2019-03-25T06:28:13.860Z,2472.00
2019-03-25T06:29:13.830Z,2952.00
2019-03-25T06:30:13.824Z,4100.00
2019-03-25T06:31:13.816Z,4608.00
2019-03-25T06:32:13.812Z,4912.00
2019-03-25T06:33:13.835Z,4932.00
2019-03-25T06:34:13.800Z,4124.00
2019-03-25T06:35:13.813Z,2696.00
2019-03-25T06:36:13.795Z,2212.00
2019-03-25T06:37:13.792Z,2400.00
2019-03-25T06:38:13.816Z,2576.00
2019-03-25T06:39:13.811Z,3396.00
2019-03-25T06:40:13.780Z,4636.00
2019-03-25T06:41:13.775Z,5320.00
2019-03-25T06:42:13.768Z,5252.00
2019-03-25T06:43:13.771Z,5512.00
2019-03-25T06:44:13.788Z,6260.00
2019-03-25T06:45:13.761Z,6872.00
2019-03-25T06:46:13.825Z,6896.00
2019-03-25T06:47:13.754Z,7060.00
2019-03-25T06:48:13.742Z,7676.00
2019-03-25T06:49:13.768Z,8480.00
2019-03-25T06:50:13.737Z,10236.00
2019-03-25T06:51:13.732Z,12804.00
2019-03-25T06:52:13.727Z,14056.00
2019-03-25T06:53:13.731Z,13444.00
2019-03-25T06:54:13.752Z,15072.00
2019-03-25T06:55:13.720Z,14796.00
2019-03-25T06:56:13.711Z,14068.00
2019-03-25T06:57:24.982Z,13184.00
2019-03-25T06:58:13.702Z,12184.00
2019-03-25T06:59:13.724Z,11156.00
2019-03-25T07:00:13.705Z,10296.00
2019-03-25T07:01:13.695Z,9300.00
2019-03-25T07:02:13.692Z,8016.00
2019-03-25T07:03:13.684Z,7236.00
2019-03-25T07:04:13.712Z,6840.00
2019-03-25T07:05:13.683Z,7516.00
2019-03-25T07:06:13.774Z,7916.00
2019-03-25T07:07:13.671Z,7760.00
2019-03-25T07:08:13.673Z,7516.00
2019-03-25T07:09:13.699Z,6864.00
2019-03-25T07:10:13.662Z,5604.00
2019-03-25T07:11:13.668Z,4396.00
2019-03-25T07:12:13.650Z,4448.00
2019-03-25T07:13:13.656Z,5100.00
2019-03-25T07:14:13.679Z,5060.00
2019-03-25T07:15:13.650Z,4592.00
2019-03-25T07:16:13.644Z,5060.00
2019-03-25T07:17:13.635Z,4928.00
2019-03-25T07:18:13.634Z,3732.00
2019-03-25T07:19:13.664Z,3568.00
2019-03-25T07:20:13.630Z,4832.00
2019-03-25T07:21:13.622Z,4924.00
2019-03-25T07:22:13.618Z,3980.00
2019-03-25T07:23:13.618Z,4004.00
2019-03-25T07:24:13.638Z,5020.00
2019-03-25T07:25:13.610Z,4852.00
2019-03-25T07:26:13.607Z,4780.00
2019-03-25T07:27:13.602Z,4276.00
2019-03-25T07:28:13.600Z,3816.00
2019-03-25T07:29:13.619Z,4628.00
2019-03-25T07:30:13.591Z,5064.00
2019-03-25T07:31:13.590Z,4576.00
2019-03-25T07:32:13.582Z,4640.00
2019-03-25T07:33:13.580Z,5540.00
2019-03-25T07:34:13.605Z,6104.00
2019-03-25T07:35:13.569Z,5012.00
2019-03-25T07:36:13.570Z,4972.00
2019-03-25T07:37:13.564Z,4804.00
2019-03-25T07:38:13.557Z,5092.00
2019-03-25T07:39:13.584Z,7056.00
2019-03-25T07:40:13.545Z,7216.00
2019-03-25T07:41:13.551Z,6868.00
2019-03-25T07:42:13.545Z,5528.00
2019-03-25T07:43:13.541Z,5064.00
2019-03-25T07:44:13.571Z,5176.00
2019-03-25T07:45:13.529Z,7280.00
2019-03-25T07:46:13.525Z,10536.00
2019-03-25T07:47:13.525Z,11900.00
2019-03-25T07:48:13.517Z,11700.00
2019-03-25T07:49:13.545Z,11548.00
2019-03-25T07:50:13.535Z,8136.00
2019-03-25T07:51:13.511Z,6964.00
2019-03-25T07:52:13.501Z,8660.00
2019-03-25T07:53:13.509Z,7812.00
2019-03-25T07:54:13.497Z,7040.00
2019-03-25T07:55:13.521Z,6020.00
2019-03-25T07:56:13.507Z,4660.00
2019-03-25T07:57:13.485Z,4212.00
2019-03-25T07:58:13.491Z,5272.00
2019-03-25T07:59:13.473Z,5356.00
2019-03-25T08:00:14.155Z,6744.00
2019-03-25T08:01:13.490Z,6244.00
2019-03-25T08:02:15.250Z,6716.00
2019-03-25T08:03:13.461Z,7280.00
2019-03-25T08:04:13.454Z,5944.00
2019-03-25T08:05:13.473Z,5856.00
2019-03-25T08:06:13.455Z,5104.00
2019-03-25T08:07:13.436Z,3872.00
2019-03-25T08:08:13.440Z,4000.00
2019-03-25T08:09:13.458Z,4672.00
2019-03-25T08:10:13.479Z,5948.00
2019-03-25T08:11:13.441Z,6088.00
2019-03-25T08:12:13.447Z,8236.00
2019-03-25T08:13:13.480Z,6704.00
2019-03-25T08:14:13.413Z,5844.00
2019-03-25T08:15:13.448Z,7176.00
2019-03-25T08:16:13.400Z,10516.00
2019-03-25T08:17:13.397Z,11356.00
2019-03-25T08:18:13.394Z,14644.00
2019-03-25T08:19:13.392Z,12484.00
2019-03-25T08:20:13.408Z,12928.00
2019-03-25T08:21:13.376Z,16848.00
2019-03-25T08:22:13.378Z,16368.00
2019-03-25T08:23:13.372Z,15388.00
2019-03-25T08:24:13.366Z,13220.00
2019-03-25T08:25:13.396Z,13684.00
2019-03-25T08:26:13.400Z,12744.00
2019-03-25T08:27:13.356Z,17460.00
2019-03-25T08:28:13.352Z,10880.00
2019-03-25T08:29:13.351Z,20992.00
2019-03-25T08:30:13.377Z,28896.00
2019-03-25T08:31:13.344Z,29088.00
2019-03-25T08:32:13.339Z,27424.00
2019-03-25T08:33:13.336Z,23648.00
2019-03-25T08:34:13.338Z,20320.00
2019-03-25T08:35:13.359Z,16852.00
2019-03-25T08:36:13.332Z,16892.00
2019-03-25T08:37:13.331Z,18176.00
2019-03-25T08:38:13.327Z,12324.00
2019-03-25T08:39:13.332Z,12212.00
2019-03-25T08:40:13.355Z,15864.00
2019-03-25T08:41:13.328Z,16932.00
2019-03-25T08:42:13.327Z,15448.00
2019-03-25T08:43:13.324Z,13116.00
2019-03-25T08:44:13.325Z,14360.00
2019-03-25T08:45:13.351Z,20320.00
2019-03-25T08:46:13.322Z,25312.00
2019-03-25T08:47:13.319Z,24416.00
2019-03-25T08:48:13.318Z,28032.00
2019-03-25T08:49:13.320Z,24416.00
2019-03-25T08:50:13.344Z,20832.00
2019-03-25T08:51:13.339Z,18464.00
2019-03-25T08:52:13.313Z,18656.00
2019-03-25T08:53:13.311Z,19616.00
2019-03-25T08:54:13.307Z,22112.00
2019-03-25T08:55:13.308Z,31840.00
2019-03-25T08:56:13.335Z,30720.00
2019-03-25T08:57:13.310Z,20480.00
2019-03-25T08:58:13.306Z,17176.00
2019-03-25T08:59:13.306Z,20512.00
2019-03-25T09:00:13.303Z,19296.00
2019-03-25T09:01:13.331Z,18528.00
2019-03-25T09:02:13.307Z,20928.00
2019-03-25T09:03:13.302Z,24320.00
2019-03-25T09:04:13.303Z,22368.00
2019-03-25T09:05:13.309Z,16292.00
2019-03-25T09:06:13.330Z,15916.00
2019-03-25T09:07:13.304Z,16556.00
2019-03-25T09:08:13.298Z,13884.00
2019-03-25T09:09:13.298Z,11836.00
2019-03-25T09:10:13.299Z,12912.00
2019-03-25T09:11:13.323Z,15036.00
2019-03-25T09:12:13.294Z,15452.00
2019-03-25T09:13:13.294Z,17144.00
2019-03-25T09:14:13.291Z,21184.00
2019-03-25T09:15:13.291Z,21056.00
2019-03-25T09:16:13.311Z,23360.00
2019-03-25T09:17:13.287Z,24448.00
2019-03-25T09:18:13.286Z,24416.00
2019-03-25T09:19:13.287Z,26464.00
2019-03-25T09:20:13.286Z,23392.00
2019-03-25T09:21:13.311Z,21600.00
2019-03-25T09:22:13.283Z,24640.00
2019-03-25T09:23:13.282Z,23872.00
2019-03-25T09:24:13.279Z,27680.00
2019-03-25T09:25:13.284Z,18144.00
2019-03-25T09:26:13.302Z,18912.00
2019-03-25T09:27:13.287Z,20672.00
2019-03-25T09:28:23.802Z,21408.00
2019-03-25T09:29:13.272Z,18944.00
2019-03-25T09:30:13.271Z,19552.00
2019-03-25T09:31:13.303Z,22400.00
2019-03-25T09:32:13.272Z,26816.00
2019-03-25T09:33:13.267Z,31328.00
2019-03-25T09:34:13.272Z,27008.00
2019-03-25T09:35:13.302Z,25248.00
2019-03-25T09:36:13.268Z,23584.00
2019-03-25T09:37:13.314Z,26944.00
2019-03-25T09:38:13.262Z,29184.00
2019-03-25T09:39:13.261Z,27520.00
2019-03-25T09:40:13.264Z,30304.00
2019-03-25T09:41:13.291Z,29632.00
2019-03-25T09:42:13.258Z,25568.00
2019-03-25T09:43:13.254Z,24576.00
2019-03-25T09:44:13.257Z,22784.00
2019-03-25T09:45:13.257Z,27392.00
2019-03-25T09:46:13.406Z,31264.00
2019-03-25T09:47:13.255Z,37728.00
2019-03-25T09:48:13.260Z,32704.00
2019-03-25T09:49:13.253Z,43136.00
2019-03-25T09:50:13.254Z,30144.00
2019-03-25T09:51:13.285Z,33600.00
2019-03-25T09:52:13.257Z,33600.00
2019-03-25T09:53:13.253Z,39360.00
2019-03-25T09:54:13.255Z,49024.00
2019-03-25T09:55:13.260Z,49088.00
2019-03-25T09:56:13.286Z,43808.00
2019-03-25T09:57:13.286Z,44608.00
2019-03-25T09:58:13.257Z,54688.00
2019-03-25T09:59:13.262Z,42464.00
2019-03-25T10:00:13.261Z,32672.00
2019-03-25T10:01:13.266Z,46368.00
2019-03-25T10:02:13.295Z,46624.00
2019-03-25T10:03:13.268Z,33536.00
2019-03-25T10:04:13.273Z,46176.00
2019-03-25T10:05:13.277Z,48032.00
2019-03-25T10:06:13.309Z,39136.00
2019-03-25T10:07:13.309Z,50080.00
2019-03-25T10:08:13.289Z,49728.00
2019-03-25T10:09:13.294Z,51872.00
2019-03-25T10:10:13.304Z,52192.00
2019-03-25T10:11:13.336Z,55840.00
2019-03-25T10:12:13.309Z,59520.00
2019-03-25T10:13:13.324Z,42496.00
2019-03-25T10:14:13.329Z,29056.00
2019-03-25T10:15:13.329Z,59104.00
2019-03-25T10:16:13.360Z,27648.00
2019-03-25T10:17:13.339Z,51040.00
2019-03-25T10:18:13.348Z,62176.00
2019-03-25T10:19:13.355Z,62592.00
2019-03-25T10:20:13.360Z,66848.00
2019-03-25T10:21:13.400Z,68000.00
2019-03-25T10:22:13.375Z,66240.00
2019-03-25T10:23:13.383Z,64672.00
2019-03-25T10:24:13.406Z,66048.00
2019-03-25T10:25:13.396Z,75328.00
2019-03-25T10:26:13.439Z,52800.00
2019-03-25T10:27:13.440Z,48736.00
2019-03-25T10:28:13.427Z,61024.00
2019-03-25T10:29:13.428Z,72800.00
2019-03-25T10:30:13.434Z,81600.00
2019-03-25T10:31:13.479Z,71808.00
2019-03-25T10:32:13.477Z,79072.00
2019-03-25T10:33:13.462Z,78016.00
2019-03-25T10:34:13.464Z,84640.00
2019-03-25T10:35:13.472Z,89728.00
2019-03-25T10:36:13.479Z,89888.00
2019-03-25T10:37:13.518Z,96256.00
2019-03-25T10:38:19.590Z,102016.00
2019-03-25T10:39:13.506Z,21152.00
2019-03-25T10:40:13.507Z,18464.00
2019-03-25T10:41:13.554Z,34784.00
2019-03-25T10:42:13.552Z,115712.00
2019-03-25T10:43:13.539Z,119328.00
2019-03-25T10:44:13.607Z,27552.00
2019-03-25T10:45:13.587Z,27200.00
2019-03-25T10:46:13.566Z,26048.00
2019-03-25T10:47:13.556Z,27712.00
2019-03-25T10:48:13.597Z,33472.00
2019-03-25T10:49:16.099Z,40032.00
2019-03-25T10:50:13.572Z,42848.00
2019-03-25T10:51:13.576Z,110016.00
2019-03-25T10:52:13.608Z,36032.00
2019-03-25T10:53:13.603Z,34880.00
2019-03-25T10:54:13.580Z,29728.00
2019-03-25T10:55:13.600Z,27008.00
2019-03-25T10:56:13.591Z,25056.00
2019-03-25T10:57:13.598Z,23168.00
2019-03-25T10:58:13.625Z,18016.00
2019-03-25T10:59:13.600Z,16616.00
2019-03-25T11:00:13.601Z,20416.00
2019-03-25T11:01:13.600Z,21920.00
2019-03-25T11:02:13.604Z,21088.00
2019-03-25T11:03:13.635Z,21728.00
2019-03-25T11:04:13.607Z,24704.00
2019-03-25T11:05:13.616Z,33248.00
2019-03-25T11:06:13.615Z,76000.00
2019-03-25T11:07:13.626Z,94048.00
2019-03-25T11:08:13.642Z,42368.00
2019-03-25T11:09:13.629Z,117504.00
2019-03-25T11:10:13.619Z,45664.00
2019-03-25T11:11:13.620Z,35488.00
2019-03-25T11:12:13.643Z,37024.00
2019-03-25T11:13:13.647Z,25024.00
2019-03-25T11:14:13.625Z,21440.00
2019-03-25T11:15:13.630Z,16544.00
2019-03-25T11:16:13.631Z,14080.00
2019-03-25T11:17:13.627Z,12216.00
2019-03-25T11:18:13.658Z,12460.00
2019-03-25T11:19:13.636Z,13784.00
2019-03-25T11:20:13.651Z,18656.00
2019-03-25T11:21:13.639Z,24000.00
2019-03-25T11:22:13.640Z,27648.00
2019-03-25T11:23:13.667Z,29792.00
2019-03-25T11:24:15.163Z,36160.00
2019-03-25T11:25:13.651Z,72896.00
2019-03-25T11:26:13.860Z,75296.00
2019-03-25T11:27:13.651Z,53376.00
2019-03-25T11:28:13.678Z,70944.00
2019-03-25T11:29:13.647Z,50144.00
2019-03-25T11:30:13.652Z,46720.00
2019-03-25T11:31:13.643Z,51936.00
2019-03-25T11:32:13.645Z,91168.00
2019-03-25T11:33:13.675Z,63328.00
2019-03-25T11:34:13.652Z,110176.00
2019-03-25T11:35:13.657Z,35200.00
2019-03-25T11:36:13.655Z,53344.00
2019-03-25T11:37:13.656Z,26816.00
2019-03-25T11:38:13.693Z,21024.00
2019-03-25T11:39:13.663Z,18496.00
2019-03-25T11:40:13.662Z,18272.00
2019-03-25T11:41:13.668Z,17664.00
2019-03-25T11:42:13.668Z,16044.00
2019-03-25T11:43:13.672Z,15032.00
2019-03-25T11:44:13.697Z,15448.00
2019-03-25T11:45:13.674Z,18816.00
2019-03-25T11:46:13.681Z,19744.00
2019-03-25T11:47:13.675Z,22816.00
2019-03-25T11:48:13.678Z,28448.00
2019-03-25T11:49:13.707Z,35488.00
2019-03-25T11:50:13.679Z,36416.00
2019-03-25T11:51:13.679Z,38976.00
2019-03-25T11:52:13.679Z,45856.00
2019-03-25T11:53:13.674Z,41696.00
2019-03-25T11:54:13.700Z,41504.00
2019-03-25T11:55:13.686Z,37696.00
2019-03-25T11:56:13.679Z,42976.00
2019-03-25T11:57:13.682Z,45376.00
2019-03-25T11:58:13.680Z,49216.00
2019-03-25T11:59:18.575Z,90688.00
2019-03-25T12:00:13.680Z,84384.00
2019-03-25T12:01:13.681Z,93856.00
2019-03-25T12:02:17.513Z,100000.00
2019-03-25T12:03:13.680Z,83168.00
2019-03-25T12:04:13.711Z,64992.00
2019-03-25T12:05:13.688Z,82592.00
2019-03-25T12:06:13.692Z,30144.00
2019-03-25T12:07:13.688Z,28640.00
2019-03-25T12:08:13.698Z,30464.00
2019-03-25T12:09:13.723Z,28288.00
2019-03-25T12:10:13.987Z,25408.00
2019-03-25T12:11:13.704Z,23264.00
2019-03-25T12:12:13.707Z,25504.00
2019-03-25T12:13:13.708Z,24224.00
2019-03-25T12:14:13.740Z,29600.00
2019-03-25T12:15:13.712Z,39680.00
2019-03-25T12:16:13.712Z,38112.00
2019-03-25T12:17:13.716Z,44640.00
2019-03-25T12:18:13.749Z,40672.00
2019-03-25T12:19:13.753Z,41600.00
2019-03-25T12:20:13.720Z,47328.00
2019-03-25T12:21:14.331Z,71104.00
2019-03-25T12:22:13.717Z,38048.00
2019-03-25T12:23:14.333Z,25280.00
2019-03-25T12:24:13.752Z,20032.00